sensor_id;sensor_type;location;lat;lon;timestamp;P1;durP1;ratioP1;P2;durP2;ratioP2
65187;SDS011;51775;51.148;6.950;2023-10-08T00:02:14;2.67;;;1.40;;
65187;SDS011;51775;51.148;6.950;2023-10-08T00:04:40;2.22;;;1.40;;
65187;SDS011;51775;51.148;6.950;2023-10-08T00:07:05;2.70;;;1.50;;
65187;SDS011;51775;51.148;6.950;2023-10-08T00:09:31;2.55;;;1.40;;
65187;SDS011;51775;51.148;6.950;2023-10-08T00:11:56;2.25;;;1.40;;
65187;SDS011;51775;51.148;6.950;2023-10-08T00:14:21;2.65;;;1.40;;
65187;SDS011;51775;51.148;6.950;2023-10-08T00:16:47;3.00;;;1.70;;
65187;SDS011;51775;51.148;6.950;2023-10-08T00:19:12;2.92;;;1.60;;
65187;SDS011;51775;51.148;6.950;2023-10-08T00:21:37;3.00;;;1.70;;
65187;SDS011;51775;51.148;6.950;2023-10-08T00:24:02;2.95;;;1.50;;
65187;SDS011;51775;51.148;6.950;2023-10-08T00:26:28;2.70;;;1.50;;
65187;SDS011;51775;51.148;6.950;2023-10-08T00:28:54;2.60;;;1.60;;
65187;SDS011;51775;51.148;6.950;2023-10-08T00:31:24;2.20;;;1.50;;
65187;SDS011;51775;51.148;6.950;2023-10-08T00:33:49;2.40;;;1.42;;
65187;SDS011;51775;51.148;6.950;2023-10-08T00:36:14;2.95;;;1.50;;
65187;SDS011;51775;51.148;6.950;2023-10-08T00:38:40;2.75;;;1.40;;
65187;SDS011;51775;51.148;6.950;2023-10-08T00:41:05;2.85;;;1.50;;
65187;SDS011;51775;51.148;6.950;2023-10-08T00:43:31;2.40;;;1.30;;
65187;SDS011;51775;51.148;6.950;2023-10-08T00:46:00;3.22;;;1.55;;
65187;SDS011;51775;51.148;6.950;2023-10-08T00:48:26;2.53;;;1.60;;
65187;SDS011;51775;51.148;6.950;2023-10-08T00:50:52;2.53;;;1.58;;
65187;SDS011;51775;51.148;6.950;2023-10-08T00:53:17;2.85;;;1.35;;
65187;SDS011;51775;51.148;6.950;2023-10-08T00:55:43;2.45;;;1.35;;
65187;SDS011;51775;51.148;6.950;2023-10-08T00:58:08;2.70;;;1.52;;
65187;SDS011;51775;51.148;6.950;2023-10-08T01:00:34;2.17;;;1.20;;
65187;SDS011;51775;51.148;6.950;2023-10-08T01:03:00;2.33;;;1.40;;
65187;SDS011;51775;51.148;6.950;2023-10-08T01:05:25;2.72;;;1.50;;
65187;SDS011;51775;51.148;6.950;2023-10-08T01:07:50;2.50;;;1.40;;
65187;SDS011;51775;51.148;6.950;2023-10-08T01:10:17;3.30;;;1.45;;
65187;SDS011;51775;51.148;6.950;2023-10-08T01:12:43;2.47;;;1.52;;
65187;SDS011;51775;51.148;6.950;2023-10-08T01:15:08;2.50;;;1.38;;
65187;SDS011;51775;51.148;6.950;2023-10-08T01:17:33;2.22;;;1.42;;
65187;SDS011;51775;51.148;6.950;2023-10-08T01:19:59;2.30;;;1.40;;
65187;SDS011;51775;51.148;6.950;2023-10-08T01:22:24;2.40;;;1.45;;
65187;SDS011;51775;51.148;6.950;2023-10-08T01:24:49;2.80;;;1.60;;
65187;SDS011;51775;51.148;6.950;2023-10-08T01:27:15;2.40;;;1.40;;
65187;SDS011;51775;51.148;6.950;2023-10-08T01:29:41;2.95;;;1.58;;
65187;SDS011;51775;51.148;6.950;2023-10-08T01:32:06;1.98;;;1.30;;
65187;SDS011;51775;51.148;6.950;2023-10-08T01:34:31;2.40;;;1.33;;
65187;SDS011;51775;51.148;6.950;2023-10-08T01:36:57;2.78;;;1.40;;
65187;SDS011;51775;51.148;6.950;2023-10-08T01:39:22;2.42;;;1.40;;
65187;SDS011;51775;51.148;6.950;2023-10-08T01:41:47;2.15;;;1.40;;
65187;SDS011;51775;51.148;6.950;2023-10-08T01:44:13;2.35;;;1.40;;
65187;SDS011;51775;51.148;6.950;2023-10-08T01:46:38;3.00;;;1.60;;
65187;SDS011;51775;51.148;6.950;2023-10-08T01:49:03;2.47;;;1.48;;
65187;SDS011;51775;51.148;6.950;2023-10-08T01:51:29;2.50;;;1.30;;
65187;SDS011;51775;51.148;6.950;2023-10-08T01:53:54;2.63;;;1.42;;
65187;SDS011;51775;51.148;6.950;2023-10-08T01:56:20;2.40;;;1.48;;
65187;SDS011;51775;51.148;6.950;2023-10-08T01:58:45;2.28;;;1.40;;
65187;SDS011;51775;51.148;6.950;2023-10-08T02:01:10;2.30;;;1.45;;
65187;SDS011;51775;51.148;6.950;2023-10-08T02:03:36;2.60;;;1.38;;
65187;SDS011;51775;51.148;6.950;2023-10-08T02:06:01;2.30;;;1.27;;
65187;SDS011;51775;51.148;6.950;2023-10-08T02:08:26;2.20;;;1.40;;
65187;SDS011;51775;51.148;6.950;2023-10-08T02:10:51;2.25;;;1.23;;
65187;SDS011;51775;51.148;6.950;2023-10-08T02:13:17;2.47;;;1.30;;
65187;SDS011;51775;51.148;6.950;2023-10-08T02:15:49;2.85;;;1.48;;
65187;SDS011;51775;51.148;6.950;2023-10-08T02:18:15;2.00;;;1.30;;
65187;SDS011;51775;51.148;6.950;2023-10-08T02:20:40;2.60;;;1.45;;
65187;SDS011;51775;51.148;6.950;2023-10-08T02:23:06;2.38;;;1.38;;
65187;SDS011;51775;51.148;6.950;2023-10-08T02:25:31;2.70;;;1.40;;
65187;SDS011;51775;51.148;6.950;2023-10-08T02:27:57;2.63;;;1.40;;
65187;SDS011;51775;51.148;6.950;2023-10-08T02:30:22;3.10;;;1.65;;
65187;SDS011;51775;51.148;6.950;2023-10-08T02:32:47;2.58;;;1.40;;
65187;SDS011;51775;51.148;6.950;2023-10-08T02:35:13;2.95;;;1.30;;
65187;SDS011;51775;51.148;6.950;2023-10-08T02:37:38;2.67;;;1.50;;
65187;SDS011;51775;51.148;6.950;2023-10-08T02:40:04;2.72;;;1.40;;
65187;SDS011;51775;51.148;6.950;2023-10-08T02:42:34;2.78;;;1.50;;
65187;SDS011;51775;51.148;6.950;2023-10-08T02:44:59;2.80;;;1.42;;
65187;SDS011;51775;51.148;6.950;2023-10-08T02:47:24;2.38;;;1.50;;
65187;SDS011;51775;51.148;6.950;2023-10-08T02:49:49;2.30;;;1.42;;
65187;SDS011;51775;51.148;6.950;2023-10-08T02:52:15;2.83;;;1.48;;
65187;SDS011;51775;51.148;6.950;2023-10-08T02:54:40;2.78;;;1.58;;
65187;SDS011;51775;51.148;6.950;2023-10-08T02:57:05;2.95;;;1.42;;
65187;SDS011;51775;51.148;6.950;2023-10-08T02:59:31;2.65;;;1.50;;
65187;SDS011;51775;51.148;6.950;2023-10-08T03:01:57;2.30;;;1.30;;
65187;SDS011;51775;51.148;6.950;2023-10-08T03:04:23;2.58;;;1.50;;
65187;SDS011;51775;51.148;6.950;2023-10-08T03:06:49;2.08;;;1.27;;
65187;SDS011;51775;51.148;6.950;2023-10-08T03:09:18;2.90;;;1.50;;
65187;SDS011;51775;51.148;6.950;2023-10-08T03:11:44;3.00;;;1.60;;
65187;SDS011;51775;51.148;6.950;2023-10-08T03:14:09;2.30;;;1.50;;
65187;SDS011;51775;51.148;6.950;2023-10-08T03:16:34;2.17;;;1.50;;
65187;SDS011;51775;51.148;6.950;2023-10-08T03:19:01;2.75;;;1.50;;
65187;SDS011;51775;51.148;6.950;2023-10-08T03:21:26;2.40;;;1.38;;
65187;SDS011;51775;51.148;6.950;2023-10-08T03:23:51;1.90;;;1.17;;
65187;SDS011;51775;51.148;6.950;2023-10-08T03:26:17;3.25;;;1.50;;
65187;SDS011;51775;51.148;6.950;2023-10-08T03:28:42;2.72;;;1.50;;
65187;SDS011;51775;51.148;6.950;2023-10-08T03:31:07;2.65;;;1.52;;
65187;SDS011;51775;51.148;6.950;2023-10-08T03:33:36;2.42;;;1.40;;
65187;SDS011;51775;51.148;6.950;2023-10-08T03:36:02;2.38;;;1.40;;
65187;SDS011;51775;51.148;6.950;2023-10-08T03:38:31;2.45;;;1.52;;
65187;SDS011;51775;51.148;6.950;2023-10-08T03:40:57;2.60;;;1.50;;
65187;SDS011;51775;51.148;6.950;2023-10-08T03:43:22;2.95;;;1.50;;
65187;SDS011;51775;51.148;6.950;2023-10-08T03:45:47;2.30;;;1.48;;
65187;SDS011;51775;51.148;6.950;2023-10-08T03:48:12;2.88;;;1.58;;
65187;SDS011;51775;51.148;6.950;2023-10-08T03:50:38;2.40;;;1.40;;
65187;SDS011;51775;51.148;6.950;2023-10-08T03:53:03;2.10;;;1.40;;
65187;SDS011;51775;51.148;6.950;2023-10-08T03:55:28;2.05;;;1.20;;
65187;SDS011;51775;51.148;6.950;2023-10-08T03:57:54;2.60;;;1.30;;
65187;SDS011;51775;51.148;6.950;2023-10-08T04:00:19;2.45;;;1.38;;
65187;SDS011;51775;51.148;6.950;2023-10-08T04:02:45;1.98;;;1.25;;
65187;SDS011;51775;51.148;6.950;2023-10-08T04:05:10;2.33;;;1.40;;
65187;SDS011;51775;51.148;6.950;2023-10-08T04:07:35;2.88;;;1.40;;
65187;SDS011;51775;51.148;6.950;2023-10-08T04:10:01;2.90;;;1.45;;
65187;SDS011;51775;51.148;6.950;2023-10-08T04:12:26;2.83;;;1.48;;
65187;SDS011;51775;51.148;6.950;2023-10-08T04:14:51;2.30;;;1.50;;
65187;SDS011;51775;51.148;6.950;2023-10-08T04:17:16;2.20;;;1.30;;
65187;SDS011;51775;51.148;6.950;2023-10-08T04:19:42;2.55;;;1.40;;
65187;SDS011;51775;51.148;6.950;2023-10-08T04:22:07;2.75;;;1.45;;
65187;SDS011;51775;51.148;6.950;2023-10-08T04:24:32;2.42;;;1.45;;
65187;SDS011;51775;51.148;6.950;2023-10-08T04:26:58;2.50;;;1.48;;
65187;SDS011;51775;51.148;6.950;2023-10-08T04:29:23;2.55;;;1.52;;
65187;SDS011;51775;51.148;6.950;2023-10-08T04:31:50;2.35;;;1.35;;
65187;SDS011;51775;51.148;6.950;2023-10-08T04:34:15;2.38;;;1.33;;
65187;SDS011;51775;51.148;6.950;2023-10-08T04:36:44;2.55;;;1.40;;
65187;SDS011;51775;51.148;6.950;2023-10-08T04:39:09;2.10;;;1.30;;
65187;SDS011;51775;51.148;6.950;2023-10-08T04:41:34;2.25;;;1.38;;
65187;SDS011;51775;51.148;6.950;2023-10-08T04:44:00;2.25;;;1.25;;
65187;SDS011;51775;51.148;6.950;2023-10-08T04:46:25;2.40;;;1.30;;
65187;SDS011;51775;51.148;6.950;2023-10-08T04:48:50;3.05;;;1.42;;
65187;SDS011;51775;51.148;6.950;2023-10-08T04:51:16;2.72;;;1.30;;
65187;SDS011;51775;51.148;6.950;2023-10-08T04:53:41;2.60;;;1.38;;
65187;SDS011;51775;51.148;6.950;2023-10-08T04:56:07;2.28;;;1.40;;
65187;SDS011;51775;51.148;6.950;2023-10-08T04:58:34;2.60;;;1.55;;
65187;SDS011;51775;51.148;6.950;2023-10-08T05:01:00;2.50;;;1.40;;
65187;SDS011;51775;51.148;6.950;2023-10-08T05:03:25;2.50;;;1.60;;
65187;SDS011;51775;51.148;6.950;2023-10-08T05:05:50;2.75;;;1.50;;
65187;SDS011;51775;51.148;6.950;2023-10-08T05:08:16;2.75;;;1.60;;
65187;SDS011;51775;51.148;6.950;2023-10-08T05:10:41;2.30;;;1.48;;
65187;SDS011;51775;51.148;6.950;2023-10-08T05:13:06;2.58;;;1.52;;
65187;SDS011;51775;51.148;6.950;2023-10-08T05:15:32;2.47;;;1.40;;
65187;SDS011;51775;51.148;6.950;2023-10-08T05:17:57;2.53;;;1.40;;
65187;SDS011;51775;51.148;6.950;2023-10-08T05:20:22;2.42;;;1.45;;
65187;SDS011;51775;51.148;6.950;2023-10-08T05:22:48;2.60;;;1.40;;
65187;SDS011;51775;51.148;6.950;2023-10-08T05:25:13;2.38;;;1.50;;
65187;SDS011;51775;51.148;6.950;2023-10-08T05:27:39;2.55;;;1.38;;
65187;SDS011;51775;51.148;6.950;2023-10-08T05:30:05;2.42;;;1.40;;
65187;SDS011;51775;51.148;6.950;2023-10-08T05:32:31;2.83;;;1.50;;
65187;SDS011;51775;51.148;6.950;2023-10-08T05:34:56;2.75;;;1.52;;
65187;SDS011;51775;51.148;6.950;2023-10-08T05:37:22;2.90;;;1.60;;
65187;SDS011;51775;51.148;6.950;2023-10-08T05:39:47;2.47;;;1.30;;
65187;SDS011;51775;51.148;6.950;2023-10-08T05:42:12;2.40;;;1.40;;
65187;SDS011;51775;51.148;6.950;2023-10-08T05:44:38;2.20;;;1.30;;
65187;SDS011;51775;51.148;6.950;2023-10-08T05:47:07;2.75;;;1.50;;
65187;SDS011;51775;51.148;6.950;2023-10-08T05:49:33;2.63;;;1.50;;
65187;SDS011;51775;51.148;6.950;2023-10-08T05:51:58;2.28;;;1.40;;
65187;SDS011;51775;51.148;6.950;2023-10-08T05:54:25;2.50;;;1.50;;
65187;SDS011;51775;51.148;6.950;2023-10-08T05:56:51;3.35;;;1.58;;
65187;SDS011;51775;51.148;6.950;2023-10-08T05:59:17;2.58;;;1.40;;
65187;SDS011;51775;51.148;6.950;2023-10-08T06:01:42;2.92;;;1.60;;
65187;SDS011;51775;51.148;6.950;2023-10-08T06:04:09;2.67;;;1.60;;
65187;SDS011;51775;51.148;6.950;2023-10-08T06:06:34;2.50;;;1.40;;
65187;SDS011;51775;51.148;6.950;2023-10-08T06:08:59;2.42;;;1.40;;
65187;SDS011;51775;51.148;6.950;2023-10-08T06:11:24;2.70;;;1.50;;
65187;SDS011;51775;51.148;6.950;2023-10-08T06:13:50;2.30;;;1.33;;
65187;SDS011;51775;51.148;6.950;2023-10-08T06:16:15;2.50;;;1.40;;
65187;SDS011;51775;51.148;6.950;2023-10-08T06:18:40;2.55;;;1.38;;
65187;SDS011;51775;51.148;6.950;2023-10-08T06:21:06;2.38;;;1.40;;
65187;SDS011;51775;51.148;6.950;2023-10-08T06:23:31;2.72;;;1.40;;
65187;SDS011;51775;51.148;6.950;2023-10-08T06:25:57;2.60;;;1.40;;
65187;SDS011;51775;51.148;6.950;2023-10-08T06:28:22;2.50;;;1.52;;
65187;SDS011;51775;51.148;6.950;2023-10-08T06:30:48;2.30;;;1.45;;
65187;SDS011;51775;51.148;6.950;2023-10-08T06:33:15;2.92;;;1.50;;
65187;SDS011;51775;51.148;6.950;2023-10-08T06:35:41;2.47;;;1.30;;
65187;SDS011;51775;51.148;6.950;2023-10-08T06:38:06;2.90;;;1.42;;
65187;SDS011;51775;51.148;6.950;2023-10-08T06:40:31;3.00;;;1.60;;
65187;SDS011;51775;51.148;6.950;2023-10-08T06:42:56;2.40;;;1.45;;
65187;SDS011;51775;51.148;6.950;2023-10-08T06:45:22;2.58;;;1.40;;
65187;SDS011;51775;51.148;6.950;2023-10-08T06:47:47;2.70;;;1.50;;
65187;SDS011;51775;51.148;6.950;2023-10-08T06:50:13;4.15;;;1.45;;
65187;SDS011;51775;51.148;6.950;2023-10-08T06:52:38;2.60;;;1.52;;
65187;SDS011;51775;51.148;6.950;2023-10-08T06:55:04;2.42;;;1.45;;
65187;SDS011;51775;51.148;6.950;2023-10-08T06:57:29;3.10;;;1.60;;
65187;SDS011;51775;51.148;6.950;2023-10-08T06:59:55;2.33;;;1.30;;
65187;SDS011;51775;51.148;6.950;2023-10-08T07:02:20;2.55;;;1.40;;
65187;SDS011;51775;51.148;6.950;2023-10-08T07:04:45;2.22;;;1.30;;
65187;SDS011;51775;51.148;6.950;2023-10-08T07:07:11;3.15;;;1.60;;
65187;SDS011;51775;51.148;6.950;2023-10-08T07:09:36;2.10;;;1.33;;
65187;SDS011;51775;51.148;6.950;2023-10-08T07:12:01;2.67;;;1.52;;
65187;SDS011;51775;51.148;6.950;2023-10-08T07:14:27;2.58;;;1.30;;
65187;SDS011;51775;51.148;6.950;2023-10-08T07:16:56;2.28;;;1.38;;
65187;SDS011;51775;51.148;6.950;2023-10-08T07:19:22;3.17;;;1.60;;
65187;SDS011;51775;51.148;6.950;2023-10-08T07:21:48;2.88;;;1.50;;
65187;SDS011;51775;51.148;6.950;2023-10-08T07:24:13;2.67;;;1.60;;
65187;SDS011;51775;51.148;6.950;2023-10-08T07:26:39;3.30;;;1.52;;
65187;SDS011;51775;51.148;6.950;2023-10-08T07:29:05;3.42;;;1.77;;
65187;SDS011;51775;51.148;6.950;2023-10-08T07:31:31;2.70;;;1.58;;
65187;SDS011;51775;51.148;6.950;2023-10-08T07:33:57;3.75;;;1.70;;
65187;SDS011;51775;51.148;6.950;2023-10-08T07:36:26;2.78;;;1.63;;
65187;SDS011;51775;51.148;6.950;2023-10-08T07:38:52;2.53;;;1.50;;
65187;SDS011;51775;51.148;6.950;2023-10-08T07:41:18;2.92;;;1.45;;
65187;SDS011;51775;51.148;6.950;2023-10-08T07:43:44;4.03;;;1.55;;
65187;SDS011;51775;51.148;6.950;2023-10-08T07:46:10;3.55;;;1.60;;
65187;SDS011;51775;51.148;6.950;2023-10-08T07:48:36;2.80;;;1.70;;
65187;SDS011;51775;51.148;6.950;2023-10-08T07:51:01;3.10;;;1.40;;
65187;SDS011;51775;51.148;6.950;2023-10-08T07:53:27;3.63;;;1.90;;
65187;SDS011;51775;51.148;6.950;2023-10-08T07:55:52;2.90;;;1.70;;
65187;SDS011;51775;51.148;6.950;2023-10-08T07:58:18;2.92;;;1.60;;
65187;SDS011;51775;51.148;6.950;2023-10-08T08:00:43;3.97;;;1.50;;
65187;SDS011;51775;51.148;6.950;2023-10-08T08:03:09;5.90;;;1.50;;
65187;SDS011;51775;51.148;6.950;2023-10-08T08:05:35;2.88;;;1.52;;
65187;SDS011;51775;51.148;6.950;2023-10-08T08:08:01;2.80;;;1.58;;
65187;SDS011;51775;51.148;6.950;2023-10-08T08:10:26;2.65;;;1.48;;
65187;SDS011;51775;51.148;6.950;2023-10-08T08:12:51;3.15;;;1.58;;
65187;SDS011;51775;51.148;6.950;2023-10-08T08:15:17;5.13;;;1.75;;
65187;SDS011;51775;51.148;6.950;2023-10-08T08:17:42;3.83;;;1.42;;
65187;SDS011;51775;51.148;6.950;2023-10-08T08:20:08;7.95;;;1.55;;
65187;SDS011;51775;51.148;6.950;2023-10-08T08:22:33;3.03;;;1.60;;
65187;SDS011;51775;51.148;6.950;2023-10-08T08:24:59;5.45;;;1.63;;
65187;SDS011;51775;51.148;6.950;2023-10-08T08:27:24;3.90;;;1.60;;
65187;SDS011;51775;51.148;6.950;2023-10-08T08:29:50;3.00;;;1.60;;
65187;SDS011;51775;51.148;6.950;2023-10-08T08:32:16;3.30;;;1.73;;
65187;SDS011;51775;51.148;6.950;2023-10-08T08:34:44;4.90;;;1.67;;
65187;SDS011;51775;51.148;6.950;2023-10-08T08:37:12;3.75;;;1.60;;
65187;SDS011;51775;51.148;6.950;2023-10-08T08:39:38;4.57;;;1.77;;
65187;SDS011;51775;51.148;6.950;2023-10-08T08:42:03;4.18;;;1.70;;
65187;SDS011;51775;51.148;6.950;2023-10-08T08:44:30;2.35;;;1.40;;
65187;SDS011;51775;51.148;6.950;2023-10-08T08:46:58;3.20;;;1.52;;
65187;SDS011;51775;51.148;6.950;2023-10-08T08:49:25;3.85;;;1.65;;
65187;SDS011;51775;51.148;6.950;2023-10-08T08:51:52;4.97;;;1.70;;
65187;SDS011;51775;51.148;6.950;2023-10-08T08:54:17;2.53;;;1.40;;
65187;SDS011;51775;51.148;6.950;2023-10-08T08:56:42;2.97;;;1.50;;
65187;SDS011;51775;51.148;6.950;2023-10-08T08:59:09;3.88;;;1.60;;
65187;SDS011;51775;51.148;6.950;2023-10-08T09:01:34;3.22;;;1.67;;
65187;SDS011;51775;51.148;6.950;2023-10-08T09:04:00;2.90;;;1.60;;
65187;SDS011;51775;51.148;6.950;2023-10-08T09:06:25;3.53;;;1.50;;
65187;SDS011;51775;51.148;6.950;2023-10-08T09:08:51;4.35;;;1.70;;
65187;SDS011;51775;51.148;6.950;2023-10-08T09:11:17;3.78;;;1.73;;
65187;SDS011;51775;51.148;6.950;2023-10-08T09:13:42;4.13;;;1.60;;
65187;SDS011;51775;51.148;6.950;2023-10-08T09:16:08;3.08;;;1.58;;
65187;SDS011;51775;51.148;6.950;2023-10-08T09:18:37;2.80;;;1.60;;
65187;SDS011;51775;51.148;6.950;2023-10-08T09:21:13;3.55;;;1.55;;
65187;SDS011;51775;51.148;6.950;2023-10-08T09:23:41;3.05;;;1.70;;
65187;SDS011;51775;51.148;6.950;2023-10-08T09:26:07;3.30;;;1.60;;
65187;SDS011;51775;51.148;6.950;2023-10-08T09:28:32;3.67;;;1.63;;
65187;SDS011;51775;51.148;6.950;2023-10-08T09:30:57;3.13;;;1.50;;
65187;SDS011;51775;51.148;6.950;2023-10-08T09:33:24;3.00;;;1.50;;
65187;SDS011;51775;51.148;6.950;2023-10-08T09:35:49;3.45;;;1.63;;
65187;SDS011;51775;51.148;6.950;2023-10-08T09:38:17;2.72;;;1.67;;
65187;SDS011;51775;51.148;6.950;2023-10-08T09:40:42;3.47;;;1.67;;
65187;SDS011;51775;51.148;6.950;2023-10-08T09:43:08;2.40;;;1.40;;
65187;SDS011;51775;51.148;6.950;2023-10-08T09:45:35;3.65;;;1.70;;
65187;SDS011;51775;51.148;6.950;2023-10-08T09:48:03;2.47;;;1.52;;
65187;SDS011;51775;51.148;6.950;2023-10-08T09:50:34;2.30;;;1.40;;
65187;SDS011;51775;51.148;6.950;2023-10-08T09:53:12;3.05;;;1.70;;
65187;SDS011;51775;51.148;6.950;2023-10-08T09:55:38;2.90;;;1.55;;
65187;SDS011;51775;51.148;6.950;2023-10-08T09:58:13;3.07;;;1.87;;
65187;SDS011;51775;51.148;6.950;2023-10-08T10:00:38;2.40;;;1.48;;
65187;SDS011;51775;51.148;6.950;2023-10-08T10:03:05;3.33;;;1.70;;
65187;SDS011;51775;51.148;6.950;2023-10-08T10:05:34;2.70;;;1.60;;
65187;SDS011;51775;51.148;6.950;2023-10-08T10:07:59;3.10;;;1.60;;
65187;SDS011;51775;51.148;6.950;2023-10-08T10:10:28;2.72;;;1.60;;
65187;SDS011;51775;51.148;6.950;2023-10-08T10:12:57;2.72;;;1.70;;
65187;SDS011;51775;51.148;6.950;2023-10-08T10:15:23;3.63;;;1.60;;
65187;SDS011;51775;51.148;6.950;2023-10-08T10:17:48;4.10;;;1.80;;
65187;SDS011;51775;51.148;6.950;2023-10-08T10:20:13;3.13;;;1.70;;
65187;SDS011;51775;51.148;6.950;2023-10-08T10:22:38;3.63;;;1.80;;
65187;SDS011;51775;51.148;6.950;2023-10-08T10:25:04;2.83;;;1.50;;
65187;SDS011;51775;51.148;6.950;2023-10-08T10:27:32;3.72;;;1.77;;
65187;SDS011;51775;51.148;6.950;2023-10-08T10:30:03;2.83;;;1.42;;
65187;SDS011;51775;51.148;6.950;2023-10-08T10:32:29;2.75;;;1.50;;
65187;SDS011;51775;51.148;6.950;2023-10-08T10:34:54;3.47;;;1.77;;
65187;SDS011;51775;51.148;6.950;2023-10-08T10:37:19;3.13;;;1.80;;
65187;SDS011;51775;51.148;6.950;2023-10-08T10:39:57;3.92;;;2.08;;
65187;SDS011;51775;51.148;6.950;2023-10-08T10:42:23;3.13;;;1.60;;
65187;SDS011;51775;51.148;6.950;2023-10-08T10:44:48;3.13;;;1.80;;
65187;SDS011;51775;51.148;6.950;2023-10-08T10:47:14;2.65;;;1.60;;
65187;SDS011;51775;51.148;6.950;2023-10-08T10:49:41;3.20;;;1.75;;
65187;SDS011;51775;51.148;6.950;2023-10-08T10:52:08;3.15;;;1.77;;
65187;SDS011;51775;51.148;6.950;2023-10-08T10:54:33;3.42;;;1.77;;
65187;SDS011;51775;51.148;6.950;2023-10-08T10:57:00;3.13;;;1.80;;
65187;SDS011;51775;51.148;6.950;2023-10-08T10:59:26;2.85;;;1.63;;
65187;SDS011;51775;51.148;6.950;2023-10-08T11:01:52;3.33;;;1.67;;
65187;SDS011;51775;51.148;6.950;2023-10-08T11:04:18;3.47;;;1.77;;
65187;SDS011;51775;51.148;6.950;2023-10-08T11:06:44;3.30;;;1.65;;
65187;SDS011;51775;51.148;6.950;2023-10-08T11:09:12;2.53;;;1.52;;
65187;SDS011;51775;51.148;6.950;2023-10-08T11:11:38;3.20;;;1.80;;
65187;SDS011;51775;51.148;6.950;2023-10-08T11:14:03;3.05;;;1.70;;
65187;SDS011;51775;51.148;6.950;2023-10-08T11:16:28;3.88;;;1.90;;
65187;SDS011;51775;51.148;6.950;2023-10-08T11:18:54;3.08;;;1.60;;
65187;SDS011;51775;51.148;6.950;2023-10-08T11:21:19;3.65;;;1.98;;
65187;SDS011;51775;51.148;6.950;2023-10-08T11:23:45;3.85;;;1.83;;
65187;SDS011;51775;51.148;6.950;2023-10-08T11:26:12;3.13;;;1.77;;
65187;SDS011;51775;51.148;6.950;2023-10-08T11:28:38;2.95;;;1.88;;
65187;SDS011;51775;51.148;6.950;2023-10-08T11:31:04;3.35;;;1.67;;
65187;SDS011;51775;51.148;6.950;2023-10-08T11:33:29;3.47;;;1.90;;
65187;SDS011;51775;51.148;6.950;2023-10-08T11:35:58;3.35;;;1.70;;
65187;SDS011;51775;51.148;6.950;2023-10-08T11:38:25;3.13;;;1.90;;
65187;SDS011;51775;51.148;6.950;2023-10-08T11:40:51;3.67;;;1.80;;
65187;SDS011;51775;51.148;6.950;2023-10-08T11:43:16;3.47;;;1.95;;
65187;SDS011;51775;51.148;6.950;2023-10-08T11:45:42;3.03;;;1.65;;
65187;SDS011;51775;51.148;6.950;2023-10-08T11:48:08;3.75;;;1.75;;
65187;SDS011;51775;51.148;6.950;2023-10-08T11:50:33;3.47;;;1.80;;
65187;SDS011;51775;51.148;6.950;2023-10-08T11:53:01;3.20;;;1.77;;
65187;SDS011;51775;51.148;6.950;2023-10-08T11:55:27;3.42;;;1.80;;
65187;SDS011;51775;51.148;6.950;2023-10-08T11:57:53;3.55;;;1.90;;
65187;SDS011;51775;51.148;6.950;2023-10-08T12:00:18;4.07;;;1.90;;
65187;SDS011;51775;51.148;6.950;2023-10-08T12:02:53;3.63;;;2.00;;
65187;SDS011;51775;51.148;6.950;2023-10-08T12:05:18;2.83;;;1.63;;
65187;SDS011;51775;51.148;6.950;2023-10-08T12:07:44;3.30;;;1.60;;
65187;SDS011;51775;51.148;6.950;2023-10-08T12:10:13;3.78;;;2.10;;
65187;SDS011;51775;51.148;6.950;2023-10-08T12:12:39;3.35;;;1.75;;
65187;SDS011;51775;51.148;6.950;2023-10-08T12:15:04;3.70;;;1.70;;
65187;SDS011;51775;51.148;6.950;2023-10-08T12:17:30;3.40;;;1.60;;
65187;SDS011;51775;51.148;6.950;2023-10-08T12:19:55;3.47;;;1.92;;
65187;SDS011;51775;51.148;6.950;2023-10-08T12:22:20;3.17;;;1.90;;
65187;SDS011;51775;51.148;6.950;2023-10-08T12:24:46;3.70;;;1.93;;
65187;SDS011;51775;51.148;6.950;2023-10-08T12:27:11;3.42;;;2.03;;
65187;SDS011;51775;51.148;6.950;2023-10-08T12:29:36;3.35;;;1.80;;
65187;SDS011;51775;51.148;6.950;2023-10-08T12:32:02;3.65;;;2.10;;
65187;SDS011;51775;51.148;6.950;2023-10-08T12:34:27;3.28;;;1.90;;
65187;SDS011;51775;51.148;6.950;2023-10-08T12:36:52;3.83;;;2.07;;
65187;SDS011;51775;51.148;6.950;2023-10-08T12:39:17;3.30;;;1.85;;
65187;SDS011;51775;51.148;6.950;2023-10-08T12:41:43;3.75;;;1.90;;
65187;SDS011;51775;51.148;6.950;2023-10-08T12:44:10;3.05;;;2.00;;
65187;SDS011;51775;51.148;6.950;2023-10-08T12:46:35;2.88;;;1.70;;
65187;SDS011;51775;51.148;6.950;2023-10-08T12:49:01;3.58;;;2.00;;
65187;SDS011;51775;51.148;6.950;2023-10-08T12:51:26;2.85;;;1.80;;
65187;SDS011;51775;51.148;6.950;2023-10-08T12:53:53;3.65;;;2.10;;
65187;SDS011;51775;51.148;6.950;2023-10-08T12:56:18;2.97;;;1.80;;
65187;SDS011;51775;51.148;6.950;2023-10-08T12:58:44;2.88;;;1.75;;
65187;SDS011;51775;51.148;6.950;2023-10-08T13:01:12;3.20;;;1.80;;
65187;SDS011;51775;51.148;6.950;2023-10-08T13:03:38;3.25;;;2.10;;
65187;SDS011;51775;51.148;6.950;2023-10-08T13:06:04;3.33;;;1.90;;
65187;SDS011;51775;51.148;6.950;2023-10-08T13:08:30;3.45;;;1.75;;
65187;SDS011;51775;51.148;6.950;2023-10-08T13:10:58;3.25;;;1.80;;
65187;SDS011;51775;51.148;6.950;2023-10-08T13:13:23;3.92;;;2.10;;
65187;SDS011;51775;51.148;6.950;2023-10-08T13:15:48;3.25;;;1.85;;
65187;SDS011;51775;51.148;6.950;2023-10-08T13:18:14;3.47;;;1.70;;
65187;SDS011;51775;51.148;6.950;2023-10-08T13:20:39;2.92;;;1.77;;
65187;SDS011;51775;51.148;6.950;2023-10-08T13:23:04;3.60;;;1.85;;
65187;SDS011;51775;51.148;6.950;2023-10-08T13:25:30;3.38;;;1.85;;
65187;SDS011;51775;51.148;6.950;2023-10-08T13:27:55;3.53;;;2.00;;
65187;SDS011;51775;51.148;6.950;2023-10-08T13:30:20;3.55;;;1.95;;
65187;SDS011;51775;51.148;6.950;2023-10-08T13:32:46;3.47;;;1.90;;
65187;SDS011;51775;51.148;6.950;2023-10-08T13:35:11;3.35;;;2.10;;
65187;SDS011;51775;51.148;6.950;2023-10-08T13:37:37;4.07;;;1.88;;
65187;SDS011;51775;51.148;6.950;2023-10-08T13:40:02;3.28;;;1.70;;
65187;SDS011;51775;51.148;6.950;2023-10-08T13:42:28;4.35;;;1.88;;
65187;SDS011;51775;51.148;6.950;2023-10-08T13:44:53;3.47;;;2.13;;
65187;SDS011;51775;51.148;6.950;2023-10-08T13:47:20;3.28;;;1.88;;
65187;SDS011;51775;51.148;6.950;2023-10-08T13:49:45;3.30;;;1.90;;
65187;SDS011;51775;51.148;6.950;2023-10-08T13:52:10;3.67;;;2.00;;
65187;SDS011;51775;51.148;6.950;2023-10-08T13:54:36;3.70;;;1.85;;
65187;SDS011;51775;51.148;6.950;2023-10-08T13:57:01;3.85;;;2.03;;
65187;SDS011;51775;51.148;6.950;2023-10-08T13:59:26;3.92;;;2.00;;
65187;SDS011;51775;51.148;6.950;2023-10-08T14:01:52;3.00;;;1.90;;
65187;SDS011;51775;51.148;6.950;2023-10-08T14:04:17;3.10;;;2.00;;
65187;SDS011;51775;51.148;6.950;2023-10-08T14:06:43;4.15;;;2.17;;
65187;SDS011;51775;51.148;6.950;2023-10-08T14:09:08;3.38;;;1.90;;
65187;SDS011;51775;51.148;6.950;2023-10-08T14:11:33;3.20;;;1.90;;
65187;SDS011;51775;51.148;6.950;2023-10-08T14:13:59;3.60;;;2.00;;
65187;SDS011;51775;51.148;6.950;2023-10-08T14:16:25;3.60;;;2.08;;
65187;SDS011;51775;51.148;6.950;2023-10-08T14:18:50;3.47;;;1.95;;
65187;SDS011;51775;51.148;6.950;2023-10-08T14:21:17;3.40;;;2.08;;
65187;SDS011;51775;51.148;6.950;2023-10-08T14:23:42;3.63;;;2.13;;
65187;SDS011;51775;51.148;6.950;2023-10-08T14:26:08;4.43;;;2.03;;
65187;SDS011;51775;51.148;6.950;2023-10-08T14:28:34;3.35;;;2.00;;
65187;SDS011;51775;51.148;6.950;2023-10-08T14:31:00;3.95;;;2.03;;
65187;SDS011;51775;51.148;6.950;2023-10-08T14:33:25;3.30;;;1.85;;
65187;SDS011;51775;51.148;6.950;2023-10-08T14:35:51;3.63;;;1.98;;
65187;SDS011;51775;51.148;6.950;2023-10-08T14:38:16;3.67;;;2.08;;
65187;SDS011;51775;51.148;6.950;2023-10-08T14:40:41;3.83;;;2.40;;